sensor_id;sensor_type;location;lat;lon;timestamp;temperature;humidity
45329;DHT22;72636;48.160;11.428;2024-02-21T00:01:50;5.30;99.90
45329;DHT22;72636;48.160;11.428;2024-02-21T00:04:15;5.30;99.90
45329;DHT22;72636;48.160;11.428;2024-02-21T00:06:41;5.40;99.90
45329;DHT22;72636;48.160;11.428;2024-02-21T00:09:07;5.40;99.90
45329;DHT22;72636;48.160;11.428;2024-02-21T00:11:35;5.40;99.90
45329;DHT22;72636;48.160;11.428;2024-02-21T00:14:00;5.40;99.90
45329;DHT22;72636;48.160;11.428;2024-02-21T00:16:26;5.40;99.90
45329;DHT22;72636;48.160;11.428;2024-02-21T00:18:52;5.50;99.90
45329;DHT22;72636;48.160;11.428;2024-02-21T00:21:17;5.50;99.90
45329;DHT22;72636;48.160;11.428;2024-02-21T00:23:46;5.50;99.90
45329;DHT22;72636;48.160;11.428;2024-02-21T00:26:13;5.50;99.90
45329;DHT22;72636;48.160;11.428;2024-02-21T00:28:39;5.50;99.90
45329;DHT22;72636;48.160;11.428;2024-02-21T00:31:04;5.50;99.90
45329;DHT22;72636;48.160;11.428;2024-02-21T00:33:30;5.50;99.90
45329;DHT22;72636;48.160;11.428;2024-02-21T00:35:56;5.50;99.90
45329;DHT22;72636;48.160;11.428;2024-02-21T00:38:22;5.50;99.90
45329;DHT22;72636;48.160;11.428;2024-02-21T00:40:47;5.60;99.90
45329;DHT22;72636;48.160;11.428;2024-02-21T00:43:13;5.60;99.90
45329;DHT22;72636;48.160;11.428;2024-02-21T00:45:39;5.50;99.90
45329;DHT22;72636;48.160;11.428;2024-02-21T00:48:05;5.60;99.90
45329;DHT22;72636;48.160;11.428;2024-02-21T00:50:30;5.60;99.90
45329;DHT22;72636;48.160;11.428;2024-02-21T00:52:56;5.60;99.90
45329;DHT22;72636;48.160;11.428;2024-02-21T00:55:22;5.60;99.90
45329;DHT22;72636;48.160;11.428;2024-02-21T00:57:47;5.60;99.90
45329;DHT22;72636;48.160;11.428;2024-02-21T01:00:13;5.60;99.90
45329;DHT22;72636;48.160;11.428;2024-02-21T01:02:39;5.70;99.90
45329;DHT22;72636;48.160;11.428;2024-02-21T01:05:05;5.70;99.90
45329;DHT22;72636;48.160;11.428;2024-02-21T01:07:31;5.70;99.90
45329;DHT22;72636;48.160;11.428;2024-02-21T01:09:56;5.70;99.90
45329;DHT22;72636;48.160;11.428;2024-02-21T01:12:22;5.70;99.90
45329;DHT22;72636;48.160;11.428;2024-02-21T01:14:48;5.70;99.90
45329;DHT22;72636;48.160;11.428;2024-02-21T01:17:15;5.70;99.90
45329;DHT22;72636;48.160;11.428;2024-02-21T01:19:40;5.60;99.90
45329;DHT22;72636;48.160;11.428;2024-02-21T01:22:06;5.70;99.90
45329;DHT22;72636;48.160;11.428;2024-02-21T01:24:32;5.70;99.90
45329;DHT22;72636;48.160;11.428;2024-02-21T01:26:58;5.70;99.90
45329;DHT22;72636;48.160;11.428;2024-02-21T01:29:23;5.70;99.90
45329;DHT22;72636;48.160;11.428;2024-02-21T01:31:49;5.70;99.90
45329;DHT22;72636;48.160;11.428;2024-02-21T01:34:14;5.70;99.90
45329;DHT22;72636;48.160;11.428;2024-02-21T01:36:40;5.70;99.90
45329;DHT22;72636;48.160;11.428;2024-02-21T01:39:07;5.70;99.90
45329;DHT22;72636;48.160;11.428;2024-02-21T01:41:33;5.70;99.90
45329;DHT22;72636;48.160;11.428;2024-02-21T01:43:59;5.60;99.90
45329;DHT22;72636;48.160;11.428;2024-02-21T01:46:24;5.60;99.90
45329;DHT22;72636;48.160;11.428;2024-02-21T01:48:57;5.60;99.90
45329;DHT22;72636;48.160;11.428;2024-02-21T01:51:23;5.60;99.90
45329;DHT22;72636;48.160;11.428;2024-02-21T01:53:50;5.60;99.90
45329;DHT22;72636;48.160;11.428;2024-02-21T01:56:17;5.60;99.90
45329;DHT22;72636;48.160;11.428;2024-02-21T01:58:44;5.60;99.90
45329;DHT22;72636;48.160;11.428;2024-02-21T02:01:10;5.60;99.90
45329;DHT22;72636;48.160;11.428;2024-02-21T02:03:36;5.60;99.90
45329;DHT22;72636;48.160;11.428;2024-02-21T02:06:03;5.60;99.90
45329;DHT22;72636;48.160;11.428;2024-02-21T02:08:30;5.60;99.90
45329;DHT22;72636;48.160;11.428;2024-02-21T02:10:57;5.60;99.90
45329;DHT22;72636;48.160;11.428;2024-02-21T02:13:22;5.60;99.90
45329;DHT22;72636;48.160;11.428;2024-02-21T02:15:49;5.60;99.90
45329;DHT22;72636;48.160;11.428;2024-02-21T02:18:16;5.60;99.90
45329;DHT22;72636;48.160;11.428;2024-02-21T02:20:43;5.50;99.90
45329;DHT22;72636;48.160;11.428;2024-02-21T02:23:32;5.60;99.90
45329;DHT22;72636;48.160;11.428;2024-02-21T02:25:58;5.60;99.90
45329;DHT22;72636;48.160;11.428;2024-02-21T02:28:24;5.60;99.90
45329;DHT22;72636;48.160;11.428;2024-02-21T02:30:50;5.60;99.90
45329;DHT22;72636;48.160;11.428;2024-02-21T02:33:16;5.60;99.90
45329;DHT22;72636;48.160;11.428;2024-02-21T02:35:45;5.60;99.90
45329;DHT22;72636;48.160;11.428;2024-02-21T02:38:11;5.60;99.90
45329;DHT22;72636;48.160;11.428;2024-02-21T02:40:38;5.50;99.90
45329;DHT22;72636;48.160;11.428;2024-02-21T02:43:04;5.50;99.90
45329;DHT22;72636;48.160;11.428;2024-02-21T02:45:30;5.50;99.90
45329;DHT22;72636;48.160;11.428;2024-02-21T02:47:56;5.50;99.90
45329;DHT22;72636;48.160;11.428;2024-02-21T02:50:23;5.50;99.90
45329;DHT22;72636;48.160;11.428;2024-02-21T02:52:49;5.50;99.90
45329;DHT22;72636;48.160;11.428;2024-02-21T02:55:14;5.50;99.90
45329;DHT22;72636;48.160;11.428;2024-02-21T02:57:40;5.50;99.90
45329;DHT22;72636;48.160;11.428;2024-02-21T03:00:10;5.50;99.90
45329;DHT22;72636;48.160;11.428;2024-02-21T03:02:38;5.50;99.90
45329;DHT22;72636;48.160;11.428;2024-02-21T03:05:14;5.50;99.90
45329;DHT22;72636;48.160;11.428;2024-02-21T03:07:41;5.50;99.90
45329;DHT22;72636;48.160;11.428;2024-02-21T03:10:07;5.50;99.90
45329;DHT22;72636;48.160;11.428;2024-02-21T03:12:33;5.50;99.90
45329;DHT22;72636;48.160;11.428;2024-02-21T03:14:59;5.50;99.90
45329;DHT22;72636;48.160;11.428;2024-02-21T03:17:25;5.50;99.90
45329;DHT22;72636;48.160;11.428;2024-02-21T03:19:52;5.50;99.90
45329;DHT22;72636;48.160;11.428;2024-02-21T03:22:18;5.50;99.90
45329;DHT22;72636;48.160;11.428;2024-02-21T03:24:44;5.50;99.90
45329;DHT22;72636;48.160;11.428;2024-02-21T03:27:09;5.50;99.90
45329;DHT22;72636;48.160;11.428;2024-02-21T03:29:35;5.50;99.90
45329;DHT22;72636;48.160;11.428;2024-02-21T03:32:01;5.50;99.90
45329;DHT22;72636;48.160;11.428;2024-02-21T03:34:27;5.50;99.90
45329;DHT22;72636;48.160;11.428;2024-02-21T03:36:52;5.50;99.90
45329;DHT22;72636;48.160;11.428;2024-02-21T03:39:18;5.50;99.90
45329;DHT22;72636;48.160;11.428;2024-02-21T03:41:44;5.50;99.90
45329;DHT22;72636;48.160;11.428;2024-02-21T03:44:09;5.50;99.90
45329;DHT22;72636;48.160;11.428;2024-02-21T03:46:35;5.50;99.90
45329;DHT22;72636;48.160;11.428;2024-02-21T03:49:01;5.50;99.90
45329;DHT22;72636;48.160;11.428;2024-02-21T03:51:26;5.50;99.90
45329;DHT22;72636;48.160;11.428;2024-02-21T03:53:52;5.50;99.90
45329;DHT22;72636;48.160;11.428;2024-02-21T03:56:18;5.50;99.90
45329;DHT22;72636;48.160;11.428;2024-02-21T03:58:43;5.50;99.90
45329;DHT22;72636;48.160;11.428;2024-02-21T04:01:09;5.50;99.90
45329;DHT22;72636;48.160;11.428;2024-02-21T04:03:35;5.50;99.90
45329;DHT22;72636;48.160;11.428;2024-02-21T04:06:00;5.50;99.90
45329;DHT22;72636;48.160;11.428;2024-02-21T04:08:26;5.40;99.90
45329;DHT22;72636;48.160;11.428;2024-02-21T04:10:52;5.40;99.90
45329;DHT22;72636;48.160;11.428;2024-02-21T04:13:17;5.40;99.90
45329;DHT22;72636;48.160;11.428;2024-02-21T04:15:43;5.40;99.90
45329;DHT22;72636;48.160;11.428;2024-02-21T04:18:09;5.40;99.90
45329;DHT22;72636;48.160;11.428;2024-02-21T04:20:35;5.40;99.90
45329;DHT22;72636;48.160;11.428;2024-02-21T04:23:01;5.40;99.90
45329;DHT22;72636;48.160;11.428;2024-02-21T04:25:26;5.30;99.90
45329;DHT22;72636;48.160;11.428;2024-02-21T04:27:52;5.30;99.90
45329;DHT22;72636;48.160;11.428;2024-02-21T04:30:18;5.30;99.90
45329;DHT22;72636;48.160;11.428;2024-02-21T04:32:43;5.20;99.90
45329;DHT22;72636;48.160;11.428;2024-02-21T04:35:09;5.20;99.90
45329;DHT22;72636;48.160;11.428;2024-02-21T04:37:35;5.20;99.90
45329;DHT22;72636;48.160;11.428;2024-02-21T04:40:01;5.20;99.90
45329;DHT22;72636;48.160;11.428;2024-02-21T04:42:26;5.20;99.90
45329;DHT22;72636;48.160;11.428;2024-02-21T04:44:52;5.20;99.90
45329;DHT22;72636;48.160;11.428;2024-02-21T04:47:18;5.20;99.90
45329;DHT22;72636;48.160;11.428;2024-02-21T04:49:45;5.10;99.90
45329;DHT22;72636;48.160;11.428;2024-02-21T04:52:11;5.10;99.90
45329;DHT22;72636;48.160;11.428;2024-02-21T04:54:37;5.10;99.90
45329;DHT22;72636;48.160;11.428;2024-02-21T04:57:03;5.10;99.90
45329;DHT22;72636;48.160;11.428;2024-02-21T04:59:28;5.10;99.90
45329;DHT22;72636;48.160;11.428;2024-02-21T05:01:55;5.00;99.90
45329;DHT22;72636;48.160;11.428;2024-02-21T05:04:20;5.00;99.90
45329;DHT22;72636;48.160;11.428;2024-02-21T05:06:46;5.00;99.90
45329;DHT22;72636;48.160;11.428;2024-02-21T05:09:12;5.00;99.90
45329;DHT22;72636;48.160;11.428;2024-02-21T05:11:38;4.90;99.90
45329;DHT22;72636;48.160;11.428;2024-02-21T05:14:04;4.90;99.90
45329;DHT22;72636;48.160;11.428;2024-02-21T05:16:31;4.90;99.90
45329;DHT22;72636;48.160;11.428;2024-02-21T05:18:57;4.90;99.90
45329;DHT22;72636;48.160;11.428;2024-02-21T05:21:23;4.90;99.90
45329;DHT22;72636;48.160;11.428;2024-02-21T05:23:53;4.90;99.90
45329;DHT22;72636;48.160;11.428;2024-02-21T05:26:23;4.90;99.90
45329;DHT22;72636;48.160;11.428;2024-02-21T05:28:49;4.80;99.90
45329;DHT22;72636;48.160;11.428;2024-02-21T05:31:16;4.80;99.90
45329;DHT22;72636;48.160;11.428;2024-02-21T05:33:43;4.80;99.90
45329;DHT22;72636;48.160;11.428;2024-02-21T05:36:08;4.80;99.90
45329;DHT22;72636;48.160;11.428;2024-02-21T05:38:34;4.80;99.90
45329;DHT22;72636;48.160;11.428;2024-02-21T05:41:00;4.80;99.90
45329;DHT22;72636;48.160;11.428;2024-02-21T05:43:26;4.70;99.90
45329;DHT22;72636;48.160;11.428;2024-02-21T05:45:52;4.70;99.90
45329;DHT22;72636;48.160;11.428;2024-02-21T05:48:17;4.70;99.90
45329;DHT22;72636;48.160;11.428;2024-02-21T05:50:43;4.70;99.90
45329;DHT22;72636;48.160;11.428;2024-02-21T05:53:09;4.70;99.90
45329;DHT22;72636;48.160;11.428;2024-02-21T05:55:35;4.70;99.90
45329;DHT22;72636;48.160;11.428;2024-02-21T05:58:01;4.70;99.90
45329;DHT22;72636;48.160;11.428;2024-02-21T06:00:29;4.70;99.90
45329;DHT22;72636;48.160;11.428;2024-02-21T06:02:55;4.70;99.90
45329;DHT22;72636;48.160;11.428;2024-02-21T06:05:20;4.60;99.90
45329;DHT22;72636;48.160;11.428;2024-02-21T06:07:46;4.70;99.90
45329;DHT22;72636;48.160;11.428;2024-02-21T06:10:12;4.60;99.90
45329;DHT22;72636;48.160;11.428;2024-02-21T06:12:37;4.60;99.90
45329;DHT22;72636;48.160;11.428;2024-02-21T06:15:03;4.60;99.90
45329;DHT22;72636;48.160;11.428;2024-02-21T06:17:29;4.60;99.90
45329;DHT22;72636;48.160;11.428;2024-02-21T06:19:55;4.60;99.90
45329;DHT22;72636;48.160;11.428;2024-02-21T06:22:20;4.70;99.90
45329;DHT22;72636;48.160;11.428;2024-02-21T06:24:46;4.40;99.90
45329;DHT22;72636;48.160;11.428;2024-02-21T06:27:11;4.60;99.90
45329;DHT22;72636;48.160;11.428;2024-02-21T06:29:37;4.60;99.90
45329;DHT22;72636;48.160;11.428;2024-02-21T06:32:04;4.70;99.90
45329;DHT22;72636;48.160;11.428;2024-02-21T06:34:29;4.70;99.90
45329;DHT22;72636;48.160;11.428;2024-02-21T06:36:55;4.70;99.90
45329;DHT22;72636;48.160;11.428;2024-02-21T06:39:21;4.70;99.90
45329;DHT22;72636;48.160;11.428;2024-02-21T06:41:48;4.70;99.90
45329;DHT22;72636;48.160;11.428;2024-02-21T06:44:17;4.70;99.90
45329;DHT22;72636;48.160;11.428;2024-02-21T06:46:43;4.80;99.90
45329;DHT22;72636;48.160;11.428;2024-02-21T06:49:08;4.80;99.90
45329;DHT22;72636;48.160;11.428;2024-02-21T06:51:34;4.80;99.90
45329;DHT22;72636;48.160;11.428;2024-02-21T06:54:00;4.90;99.90
45329;DHT22;72636;48.160;11.428;2024-02-21T06:56:26;4.90;99.90
45329;DHT22;72636;48.160;11.428;2024-02-21T06:58:57;4.90;99.90
45329;DHT22;72636;48.160;11.428;2024-02-21T07:01:24;5.00;99.90
45329;DHT22;72636;48.160;11.428;2024-02-21T07:03:50;5.00;99.90
45329;DHT22;72636;48.160;11.428;2024-02-21T07:06:15;5.00;99.90
45329;DHT22;72636;48.160;11.428;2024-02-21T07:08:41;5.10;99.90
45329;DHT22;72636;48.160;11.428;2024-02-21T07:11:07;5.10;99.90
45329;DHT22;72636;48.160;11.428;2024-02-21T07:13:33;5.20;99.90
45329;DHT22;72636;48.160;11.428;2024-02-21T07:15:58;5.20;99.90
45329;DHT22;72636;48.160;11.428;2024-02-21T07:18:24;5.30;99.90
45329;DHT22;72636;48.160;11.428;2024-02-21T07:20:51;5.30;99.90
45329;DHT22;72636;48.160;11.428;2024-02-21T07:23:18;5.40;99.90
45329;DHT22;72636;48.160;11.428;2024-02-21T07:25:43;5.40;99.90
45329;DHT22;72636;48.160;11.428;2024-02-21T07:28:09;5.50;99.90
45329;DHT22;72636;48.160;11.428;2024-02-21T07:30:35;5.50;99.90
45329;DHT22;72636;48.160;11.428;2024-02-21T07:33:00;5.50;99.90
45329;DHT22;72636;48.160;11.428;2024-02-21T07:35:26;5.60;99.90
45329;DHT22;72636;48.160;11.428;2024-02-21T07:37:52;5.60;99.90
45329;DHT22;72636;48.160;11.428;2024-02-21T07:40:17;5.70;99.90
45329;DHT22;72636;48.160;11.428;2024-02-21T07:42:44;5.70;99.90
45329;DHT22;72636;48.160;11.428;2024-02-21T07:45:10;5.70;99.90
45329;DHT22;72636;48.160;11.428;2024-02-21T07:47:36;5.80;99.90
45329;DHT22;72636;48.160;11.428;2024-02-21T07:50:03;5.90;99.90
45329;DHT22;72636;48.160;11.428;2024-02-21T07:52:29;5.90;99.90
45329;DHT22;72636;48.160;11.428;2024-02-21T07:54:55;6.00;99.90
45329;DHT22;72636;48.160;11.428;2024-02-21T07:57:21;6.10;99.90
45329;DHT22;72636;48.160;11.428;2024-02-21T07:59:47;6.20;99.90
45329;DHT22;72636;48.160;11.428;2024-02-21T08:02:14;6.30;99.90
45329;DHT22;72636;48.160;11.428;2024-02-21T08:04:39;6.50;99.90
45329;DHT22;72636;48.160;11.428;2024-02-21T08:07:05;6.60;99.90
45329;DHT22;72636;48.160;11.428;2024-02-21T08:09:31;6.60;99.90
45329;DHT22;72636;48.160;11.428;2024-02-21T08:11:57;6.70;99.90
45329;DHT22;72636;48.160;11.428;2024-02-21T08:14:22;6.80;99.90
45329;DHT22;72636;48.160;11.428;2024-02-21T08:16:50;6.90;99.90
45329;DHT22;72636;48.160;11.428;2024-02-21T08:19:16;6.90;99.90
45329;DHT22;72636;48.160;11.428;2024-02-21T08:21:42;7.00;99.90
45329;DHT22;72636;48.160;11.428;2024-02-21T08:24:08;7.00;99.90
45329;DHT22;72636;48.160;11.428;2024-02-21T08:26:33;7.10;99.90
45329;DHT22;72636;48.160;11.428;2024-02-21T08:28:59;7.10;99.90
45329;DHT22;72636;48.160;11.428;2024-02-21T08:31:26;7.10;99.90
45329;DHT22;72636;48.160;11.428;2024-02-21T08:34:02;7.20;99.90
45329;DHT22;72636;48.160;11.428;2024-02-21T08:36:32;7.30;99.90
45329;DHT22;72636;48.160;11.428;2024-02-21T08:38:58;7.30;99.90
45329;DHT22;72636;48.160;11.428;2024-02-21T08:41:24;7.40;99.90
45329;DHT22;72636;48.160;11.428;2024-02-21T08:43:54;7.50;99.90
45329;DHT22;72636;48.160;11.428;2024-02-21T08:46:20;7.60;99.90
45329;DHT22;72636;48.160;11.428;2024-02-21T08:48:46;7.70;99.90
45329;DHT22;72636;48.160;11.428;2024-02-21T08:51:13;7.70;99.90
45329;DHT22;72636;48.160;11.428;2024-02-21T08:53:39;7.80;99.90
45329;DHT22;72636;48.160;11.428;2024-02-21T08:56:05;7.90;99.90
45329;DHT22;72636;48.160;11.428;2024-02-21T08:58:31;7.90;99.90
45329;DHT22;72636;48.160;11.428;2024-02-21T09:00:57;8.10;99.90
45329;DHT22;72636;48.160;11.428;2024-02-21T09:03:22;8.20;99.90
45329;DHT22;72636;48.160;11.428;2024-02-21T09:05:48;8.30;99.90
45329;DHT22;72636;48.160;11.428;2024-02-21T09:08:14;8.50;99.90
45329;DHT22;72636;48.160;11.428;2024-02-21T09:10:40;8.70;99.90
45329;DHT22;72636;48.160;11.428;2024-02-21T09:13:06;8.80;99.90
45329;DHT22;72636;48.160;11.428;2024-02-21T09:15:33;9.10;99.90
45329;DHT22;72636;48.160;11.428;2024-02-21T09:17:59;9.30;99.90
45329;DHT22;72636;48.160;11.428;2024-02-21T09:20:24;9.60;99.90
45329;DHT22;72636;48.160;11.428;2024-02-21T09:22:50;9.90;99.90
45329;DHT22;72636;48.160;11.428;2024-02-21T09:25:17;10.30;99.90
45329;DHT22;72636;48.160;11.428;2024-02-21T09:27:44;10.70;99.90
45329;DHT22;72636;48.160;11.428;2024-02-21T09:30:10;11.10;99.90
45329;DHT22;72636;48.160;11.428;2024-02-21T09:32:37;11.50;99.90
45329;DHT22;72636;48.160;11.428;2024-02-21T09:35:03;11.70;99.90
45329;DHT22;72636;48.160;11.428;2024-02-21T09:37:31;11.90;98.10
45329;DHT22;72636;48.160;11.428;2024-02-21T09:39:56;12.20;97.60
45329;DHT22;72636;48.160;11.428;2024-02-21T09:42:39;12.20;94.80
45329;DHT22;72636;48.160;11.428;2024-02-21T09:45:08;12.50;97.20
45329;DHT22;72636;48.160;11.428;2024-02-21T09:50:38;12.80;90.90
45329;DHT22;72636;48.160;11.428;2024-02-21T09:53:07;13.00;93.40
45329;DHT22;72636;48.160;11.428;2024-02-21T09:55:36;13.20;91.30
45329;DHT22;72636;48.160;11.428;2024-02-21T09:58:05;13.30;92.60
45329;DHT22;72636;48.160;11.428;2024-02-21T10:00:31;13.50;91.70
45329;DHT22;72636;48.160;11.428;2024-02-21T10:02:58;13.50;77.70
45329;DHT22;72636;48.160;11.428;2024-02-21T10:05:23;13.60;85.70
45329;DHT22;72636;48.160;11.428;2024-02-21T10:07:51;13.70;85.40
45329;DHT22;72636;48.160;11.428;2024-02-21T10:10:17;13.80;81.60
45329;DHT22;72636;48.160;11.428;2024-02-21T10:12:53;14.00;73.00
45329;DHT22;72636;48.160;11.428;2024-02-21T10:15:24;14.30;71.60
45329;DHT22;72636;48.160;11.428;2024-02-21T10:18:00;14.50;69.70
45329;DHT22;72636;48.160;11.428;2024-02-21T10:20:27;14.70;60.90
45329;DHT22;72636;48.160;11.428;2024-02-21T10:23:03;14.90;56.10
45329;DHT22;72636;48.160;11.428;2024-02-21T10:25:33;15.40;54.20
45329;DHT22;72636;48.160;11.428;2024-02-21T10:27:59;15.70;51.90
45329;DHT22;72636;48.160;11.428;2024-02-21T10:30:25;15.90;50.00
45329;DHT22;72636;48.160;11.428;2024-02-21T10:32:51;16.30;43.90
45329;DHT22;72636;48.160;11.428;2024-02-21T10:35:30;16.70;42.20
45329;DHT22;72636;48.160;11.428;2024-02-21T10:37:56;16.90;36.60
45329;DHT22;72636;48.160;11.428;2024-02-21T10:40:27;17.40;36.80
45329;DHT22;72636;48.160;11.428;2024-02-21T10:43:00;18.10;35.40
45329;DHT22;72636;48.160;11.428;2024-02-21T10:45:34;18.50;31.10
45329;DHT22;72636;48.160;11.428;2024-02-21T10:48:13;19.10;32.50
45329;DHT22;72636;48.160;11.428;2024-02-21T10:56:29;20.60;23.80
45329;DHT22;72636;48.160;11.428;2024-02-21T10:58:58;20.90;22.10
45329;DHT22;72636;48.160;11.428;2024-02-21T11:01:26;21.00;21.40
45329;DHT22;72636;48.160;11.428;2024-02-21T11:03:55;21.80;22.80
45329;DHT22;72636;48.160;11.428;2024-02-21T11:06:22;21.10;20.30
45329;DHT22;72636;48.160;11.428;2024-02-21T11:09:05;21.20;19.50
45329;DHT22;72636;48.160;11.428;2024-02-21T11:14:21;21.10;19.60
45329;DHT22;72636;48.160;11.428;2024-02-21T11:16:47;21.00;20.80
45329;DHT22;72636;48.160;11.428;2024-02-21T11:21:46;20.50;19.10
45329;DHT22;72636;48.160;11.428;2024-02-21T11:24:13;20.40;20.00
45329;DHT22;72636;48.160;11.428;2024-02-21T11:26:40;20.40;18.40
45329;DHT22;72636;48.160;11.428;2024-02-21T11:29:07;20.20;17.70
45329;DHT22;72636;48.160;11.428;2024-02-21T11:31:43;20.30;18.60
45329;DHT22;72636;48.160;11.428;2024-02-21T11:34:12;20.20;18.50
45329;DHT22;72636;48.160;11.428;2024-02-21T11:36:51;20.10;22.10
45329;DHT22;72636;48.160;11.428;2024-02-21T11:39:25;20.00;21.10
45329;DHT22;72636;48.160;11.428;2024-02-21T11:42:04;19.80;19.50
45329;DHT22;72636;48.160;11.428;2024-02-21T11:44:31;19.40;18.50
45329;DHT22;72636;48.160;11.428;2024-02-21T11:46:58;19.10;18.90
45329;DHT22;72636;48.160;11.428;2024-02-21T11:49:29;18.80;18.60
45329;DHT22;72636;48.160;11.428;2024-02-21T11:51:59;18.60;18.80
45329;DHT22;72636;48.160;11.428;2024-02-21T11:54:26;18.30;19.00
45329;DHT22;72636;48.160;11.428;2024-02-21T11:56:52;18.20;19.50
45329;DHT22;72636;48.160;11.428;2024-02-21T11:59:18;18.20;19.10
45329;DHT22;72636;48.160;11.428;2024-02-21T12:01:43;18.30;18.70
45329;DHT22;72636;48.160;11.428;2024-02-21T12:04:09;18.60;19.70
45329;DHT22;72636;48.160;11.428;2024-02-21T12:06:35;19.10;18.70
45329;DHT22;72636;48.160;11.428;2024-02-21T12:09:01;19.80;19.50
45329;DHT22;72636;48.160;11.428;2024-02-21T12:11:26;20.20;17.20
45329;DHT22;72636;48.160;11.428;2024-02-21T12:14:02;21.10;17.10
45329;DHT22;72636;48.160;11.428;2024-02-21T12:16:29;21.70;16.40
45329;DHT22;72636;48.160;11.428;2024-02-21T12:18:59;22.10;15.50
45329;DHT22;72636;48.160;11.428;2024-02-21T12:21:30;22.70;14.40
45329;DHT22;72636;48.160;11.428;2024-02-21T12:23:58;23.10;14.10
45329;DHT22;72636;48.160;11.428;2024-02-21T12:26:24;23.70;15.50
45329;DHT22;72636;48.160;11.428;2024-02-21T12:28:50;24.50;13.60
45329;DHT22;72636;48.160;11.428;2024-02-21T12:31:16;25.00;13.20
45329;DHT22;72636;48.160;11.428;2024-02-21T12:33:45;25.20;12.70
45329;DHT22;72636;48.160;11.428;2024-02-21T12:36:11;25.30;11.30
45329;DHT22;72636;48.160;11.428;2024-02-21T12:38:37;25.50;12.30
45329;DHT22;72636;48.160;11.428;2024-02-21T12:41:03;25.90;14.00
45329;DHT22;72636;48.160;11.428;2024-02-21T12:43:28;26.50;11.90
45329;DHT22;72636;48.160;11.428;2024-02-21T12:45:54;26.80;11.60
45329;DHT22;72636;48.160;11.428;2024-02-21T12:48:20;26.90;11.30
45329;DHT22;72636;48.160;11.428;2024-02-21T12:50:49;26.70;11.10
45329;DHT22;72636;48.160;11.428;2024-02-21T12:53:19;26.90;10.60
45329;DHT22;72636;48.160;11.428;2024-02-21T12:55:47;26.60;10.80
45329;DHT22;72636;48.160;11.428;2024-02-21T12:58:14;26.30;9.80
45329;DHT22;72636;48.160;11.428;2024-02-21T13:00:40;26.30;11.10
45329;DHT22;72636;48.160;11.428;2024-02-21T13:03:05;26.00;9.50
45329;DHT22;72636;48.160;11.428;2024-02-21T13:05:31;25.50;10.60
45329;DHT22;72636;48.160;11.428;2024-02-21T13:07:58;25.00;10.80
45329;DHT22;72636;48.160;11.428;2024-02-21T13:10:24;25.00;10.50
45329;DHT22;72636;48.160;11.428;2024-02-21T13:12:49;24.90;11.20
45329;DHT22;72636;48.160;11.428;2024-02-21T13:15:15;24.90;10.80
45329;DHT22;72636;48.160;11.428;2024-02-21T13:17:43;24.90;11.20
45329;DHT22;72636;48.160;11.428;2024-02-21T13:20:10;25.20;10.30
45329;DHT22;72636;48.160;11.428;2024-02-21T13:22:36;25.30;10.70
45329;DHT22;72636;48.160;11.428;2024-02-21T13:25:02;25.30;12.70
45329;DHT22;72636;48.160;11.428;2024-02-21T13:27:28;25.30;11.30
45329;DHT22;72636;48.160;11.428;2024-02-21T13:29:54;25.20;11.10
45329;DHT22;72636;48.160;11.428;2024-02-21T13:32:20;24.70;10.30
45329;DHT22;72636;48.160;11.428;2024-02-21T13:34:45;24.60;10.40
45329;DHT22;72636;48.160;11.428;2024-02-21T13:37:11;24.40;10.20
45329;DHT22;72636;48.160;11.428;2024-02-21T13:39:37;24.40;10.70
45329;DHT22;72636;48.160;11.428;2024-02-21T13:42:03;24.20;11.30
45329;DHT22;72636;48.160;11.428;2024-02-21T13:44:31;24.30;12.60
45329;DHT22;72636;48.160;11.428;2024-02-21T13:46:57;24.30;11.70
45329;DHT22;72636;48.160;11.428;2024-02-21T13:49:23;24.00;10.80
45329;DHT22;72636;48.160;11.428;2024-02-21T13:51:49;23.90;10.70
45329;DHT22;72636;48.160;11.428;2024-02-21T13:54:14;23.70;11.10
45329;DHT22;72636;48.160;11.428;2024-02-21T13:56:42;23.50;11.10
45329;DHT22;72636;48.160;11.428;2024-02-21T13:59:08;23.20;12.70
45329;DHT22;72636;48.160;11.428;2024-02-21T14:01:34;23.00;12.40
45329;DHT22;72636;48.160;11.428;2024-02-21T14:04:01;22.70;11.80
45329;DHT22;72636;48.160;11.428;2024-02-21T14:06:27;22.50;12.40
45329;DHT22;72636;48.160;11.428;2024-02-21T14:08:53;22.20;12.40
45329;DHT22;72636;48.160;11.428;2024-02-21T14:11:18;22.00;12.90
45329;DHT22;72636;48.160;11.428;2024-02-21T14:13:44;22.00;13.50
45329;DHT22;72636;48.160;11.428;2024-02-21T14:16:10;21.80;12.90
45329;DHT22;72636;48.160;11.428;2024-02-21T14:18:41;21.80;13.10
45329;DHT22;72636;48.160;11.428;2024-02-21T14:21:08;21.70;12.50
45329;DHT22;72636;48.160;11.428;2024-02-21T14:23:36;21.60;12.70
45329;DHT22;72636;48.160;11.428;2024-02-21T14:26:03;21.60;12.80
45329;DHT22;72636;48.160;11.428;2024-02-21T14:28:30;21.60;12.60
45329;DHT22;72636;48.160;11.428;2024-02-21T14:30:55;21.40;12.80
45329;DHT22;72636;48.160;11.428;2024-02-21T14:33:28;21.30;12.90
45329;DHT22;72636;48.160;11.428;2024-02-21T14:35:55;21.30;13.20
45329;DHT22;72636;48.160;11.428;2024-02-21T14:38:20;21.20;12.90
45329;DHT22;72636;48.160;11.428;2024-02-21T14:40:46;20.90;14.70
45329;DHT22;72636;48.160;11.428;2024-02-21T14:43:12;20.80;13.70
45329;DHT22;72636;48.160;11.428;2024-02-21T14:45:37;20.60;13.70
45329;DHT22;72636;48.160;11.428;2024-02-21T14:48:04;20.30;13.50
45329;DHT22;72636;48.160;11.428;2024-02-21T14:50:30;20.00;14.00
45329;DHT22;72636;48.160;11.428;2024-02-21T14:52:55;19.80;14.50
45329;DHT22;72636;48.160;11.428;2024-02-21T14:55:21;19.50;14.50
45329;DHT22;72636;48.160;11.428;2024-02-21T14:57:47;19.40;15.80
45329;DHT22;72636;48.160;11.428;2024-02-21T15:00:13;19.20;15.70
45329;DHT22;72636;48.160;11.428;2024-02-21T15:02:39;18.80;15.40
45329;DHT22;72636;48.160;11.428;2024-02-21T15:05:05;18.70;17.10
45329;DHT22;72636;48.160;11.428;2024-02-21T15:07:31;18.40;16.20
45329;DHT22;72636;48.160;11.428;2024-02-21T15:09:57;18.10;16.60
45329;DHT22;72636;48.160;11.428;2024-02-21T15:12:23;18.00;18.70
45329;DHT22;72636;48.160;11.428;2024-02-21T15:14:49;17.90;17.30
45329;DHT22;72636;48.160;11.428;2024-02-21T15:17:15;17.60;18.00
45329;DHT22;72636;48.160;11.428;2024-02-21T15:19:41;17.40;17.80
45329;DHT22;72636;48.160;11.428;2024-02-21T15:22:12;17.30;19.00
45329;DHT22;72636;48.160;11.428;2024-02-21T15:24:39;17.10;19.90
45329;DHT22;72636;48.160;11.428;2024-02-21T15:27:05;17.00;19.90
45329;DHT22;72636;48.160;11.428;2024-02-21T15:29:31;16.80;21.10
45329;DHT22;72636;48.160;11.428;2024-02-21T15:31:56;16.70;21.30
45329;DHT22;72636;48.160;11.428;2024-02-21T15:34:22;16.60;25.40
45329;DHT22;72636;48.160;11.428;2024-02-21T15:36:48;16.50;25.40